KERO2: Robert S. Kerr Lock & Dam & Reservoir (L&D 15)

Data processed at Fri Jun 05 2020 22:55


All information presented herein is the property of the government of the United States of America and may be revised or deleted at any time without prior notice.
Dissemination of this information without the expressed written consent of the Public Affairs Office, Tulsa District U.S. Army Corps of Engineers is strictly prohibited.
These data are gathered electronically and, as presented, have not undergone any form of quality control. These data are not guaranteed to be valid or correct.
Go to home page.
Go to station list.
Go to home page.

Upstream stations:

Downstream station:
Previous Day
Next Day
Current Day
    
SHEF ID:       KERO2     RS Kerr LD15
STATION TYPE:  NAVIGATION LOCK
Navigation Pool:  Bottom =   458.00, Top =   460.00

               PRECIP ELEVATION   STORAGE   TW-ELEV    INFLOW   RELEASE  AIR-TEMP  WIND-DIRWIND-SPEED REL-HUMID SOLAR-RAD   VOLTAGE  BAT-LOAD
                   in        ft     ac-ft        ft       cfs       cfs         F       deg       mph         %      W/m2      volt      volt
              Ccp-Rev   Ccp-Rev   Ccp-Rev   Ccp-Rev  Rev-Regi  Rev-Regi   Ccp-Rev   Ccp-Rev   Ccp-Rev   Ccp-Rev   Ccp-Rev   Ccp-Rev   Ccp-Rev
(US/Central)
06/05 00:00      0.00    459.95    523535    424.13    139020    136649     80.20     10.90      0.93     99.93      0.00     13.42     13.12
06/05 01:00      0.00    459.92    522242    424.07    136795    137200     79.66    136.20      1.60    100.00      0.00     13.42     13.12
06/05 02:00      0.00    459.96    523966    424.04    136905    136575     78.03     44.30      0.68    100.24      0.00     13.40     13.12
06/05 03:00      0.00    459.95    523535    424.01    133696    137200     76.82     36.70      1.88    100.24      0.00     13.40     13.12
06/05 04:00      0.00    459.94    523104    424.00    133636    136575     76.26     33.00      1.18    100.18      0.00     13.42     13.12
06/05 05:00      0.00    459.92    522242    423.98    128356    136275     75.72     66.10      0.68    100.12      0.00     13.40     13.12
06/05 06:00      0.00    459.89    520949    423.99    130507    136875     74.62     32.10      1.08    100.12      0.00     13.42     13.12
06/05 07:00      0.00    459.88    520518    423.98    129339    136900     75.49     50.90      0.30    100.18     26.00     13.40     13.12
06/05 08:00      0.00    459.89    520949    423.98    134554    136575     77.59     41.30      2.08    100.20    178.00     13.40     13.12
06/05 09:00      0.00    459.87    520087    423.94    132528    136575     81.99     33.70      1.65    100.26    396.00     13.40     13.12
06/05 10:00      0.00    459.90    521380    423.97    136705    136575     82.74    255.50      2.14     96.40    602.00     13.37     13.12
06/05 11:00      0.00    459.85    519225    423.99    131550    136900     84.72    211.10      2.55     89.26    782.00     13.39     13.07
06/05 12:00      0.00    459.88    520518    423.71    132718    137200     85.51    178.80      3.87     85.60    921.00     13.56     13.12
06/05 13:00      0.00    459.84    518794    423.39    125542    137200     89.02    203.90      3.75     71.74   1005.00     13.40     13.24
06/05 14:00      0.00    459.83    518363    423.28    143398    137200     90.68    227.40      3.52     65.45   1024.00     13.39     13.12
06/05 15:00      0.00    459.79    516639    423.28    120402    137200     92.88    217.40      3.92     57.09    995.00     13.41     13.12
06/05 16:00      0.00    459.91    521811    423.00    140289    136650     93.87    227.00      3.20     51.23    908.00     13.39     13.12
06/05 17:00      0.00    459.72    513622    422.45    141202    137550     96.71    227.00      2.39     45.73    760.00     13.41     13.07
06/05 18:00      0.00    459.87    520087    422.34    152545    136550     96.26    201.80      1.09     45.42    565.00     13.40     13.12
06/05 19:00      0.00    459.87    520087    422.28    137813    136550     96.37    192.00      2.39     48.23    352.00     13.40     13.12
06/05 20:00      0.00    459.94    523104    421.57    157610    136550     91.76    194.60      1.17     59.22    149.00     13.40     13.12
06/05 21:00      0.00    459.92    522242    421.24    139679    136550     86.16    226.00      0.23     72.53     15.00     13.39     13.12
06/05 22:00      0.00    459.92    522242    421.06    141765    136550     83.62    359.40      0.63     87.24      0.00     13.39     13.07
06/05 23:00      ----      ----      ----      ----      ----      ----      ----      ----      ----      ----      ----      ----      ----